Bookmark and Share
Track history (hours):
 

Eira

Last reported at 2014-Apr-24 09:32 UTC. Time now 2014-Apr-24 20:07 UTC.
Position N 59°33' E 021°04'.

Length 157 m; draft 9.2 m.

Type: Cargo ship. MMSI: 230935000.

NotesDate/timePositionNaut miles runAvg speedWind from/ knotsBaromVisibWave heightAir tempDewpointWater temp
2014-Apr-24 09:32N 59°33' E 021°04'1212.5
2014-Apr-24 08:34N 59°32' E 021°27'1212.4
2014-Apr-24 07:33N 59°32' E 021°52'1312.5
2014-Apr-24 06:32N 59°34' E 022°17'1312.5
2014-Apr-24 05:32N 59°36' E 022°41'1312.7
2014-Apr-24 04:28N 59°39' E 023°07'1112.5
2014-Apr-24 03:33N 59°41' E 023°29'1312.7
2014-Apr-24 02:33N 59°44' E 023°54'1312.6
2014-Apr-24 01:34N 59°46' E 024°18'1312.5
2014-Apr-24 00:33N 59°49' E 024°43'5712.7
2014-Apr-23 20:04N 60°01' E 026°34'612.4
2014-Apr-23 19:33N 60°01' E 026°46'2 0.0
2014-Apr-21 16:26N 59°59' E 026°43'1213.1
2014-Apr-21 15:30N 59°57' E 026°19'3913.2
2014-Apr-21 12:33N 59°48' E 025°03'1313.0
2014-Apr-21 11:33N 59°45' E 024°38'1313.1
2014-Apr-21 10:33N 59°43' E 024°13'1312.9
2014-Apr-21 09:31N 59°40' E 023°47'1312.8
2014-Apr-21 08:32N 59°39' E 023°22'1312.9
2014-Apr-21 07:33N 59°37' E 022°57'2613.1
2014-Apr-21 05:32N 59°35' E 022°05'1313.1
2014-Apr-21 04:33N 59°34' E 021°40'1312.9
2014-Apr-21 03:33N 59°36' E 021°15'  

Dump ship's entire track history

sailing weather and tide predictions

Eira — OJJP — position and weather